sensor_id;sensor_type;location;lat;lon;timestamp;P1;durP1;ratioP1;P2;durP2;ratioP2
56427;SDS011;42331;53.578;9.760;2023-02-03T00:02:14;18.88;;;9.13;;
56427;SDS011;42331;53.578;9.760;2023-02-03T00:04:45;23.77;;;13.43;;
56427;SDS011;42331;53.578;9.760;2023-02-03T00:07:15;23.48;;;13.10;;
56427;SDS011;42331;53.578;9.760;2023-02-03T00:09:46;25.88;;;14.43;;
56427;SDS011;42331;53.578;9.760;2023-02-03T00:12:17;25.85;;;14.07;;
56427;SDS011;42331;53.578;9.760;2023-02-03T00:14:47;23.05;;;12.43;;
56427;SDS011;42331;53.578;9.760;2023-02-03T00:17:18;20.50;;;11.68;;
56427;SDS011;42331;53.578;9.760;2023-02-03T00:19:49;21.30;;;11.95;;
56427;SDS011;42331;53.578;9.760;2023-02-03T00:22:19;20.48;;;11.75;;
56427;SDS011;42331;53.578;9.760;2023-02-03T00:24:50;21.58;;;11.35;;
56427;SDS011;42331;53.578;9.760;2023-02-03T00:27:21;17.58;;;10.80;;
56427;SDS011;42331;53.578;9.760;2023-02-03T00:29:51;24.55;;;11.25;;
56427;SDS011;42331;53.578;9.760;2023-02-03T00:32:22;19.10;;;10.73;;
56427;SDS011;42331;53.578;9.760;2023-02-03T00:34:53;16.08;;;8.25;;
56427;SDS011;42331;53.578;9.760;2023-02-03T00:37:23;20.75;;;11.35;;
56427;SDS011;42331;53.578;9.760;2023-02-03T00:39:54;19.80;;;11.00;;
56427;SDS011;42331;53.578;9.760;2023-02-03T00:42:25;18.17;;;10.80;;
56427;SDS011;42331;53.578;9.760;2023-02-03T00:44:55;24.13;;;11.63;;
56427;SDS011;42331;53.578;9.760;2023-02-03T00:47:26;26.75;;;11.93;;
56427;SDS011;42331;53.578;9.760;2023-02-03T00:49:57;29.10;;;12.70;;
56427;SDS011;42331;53.578;9.760;2023-02-03T00:52:27;21.02;;;12.63;;
56427;SDS011;42331;53.578;9.760;2023-02-03T00:54:58;28.85;;;11.70;;
56427;SDS011;42331;53.578;9.760;2023-02-03T00:57:29;23.35;;;11.82;;
56427;SDS011;42331;53.578;9.760;2023-02-03T00:59:59;22.35;;;11.90;;
56427;SDS011;42331;53.578;9.760;2023-02-03T01:02:30;24.83;;;11.07;;
56427;SDS011;42331;53.578;9.760;2023-02-03T01:05:01;26.92;;;11.80;;
56427;SDS011;42331;53.578;9.760;2023-02-03T01:07:31;27.45;;;12.20;;
56427;SDS011;42331;53.578;9.760;2023-02-03T01:10:02;26.75;;;12.43;;
56427;SDS011;42331;53.578;9.760;2023-02-03T01:12:34;30.15;;;11.95;;
56427;SDS011;42331;53.578;9.760;2023-02-03T01:15:05;25.90;;;11.18;;
56427;SDS011;42331;53.578;9.760;2023-02-03T01:17:36;19.93;;;10.43;;
56427;SDS011;42331;53.578;9.760;2023-02-03T01:20:07;22.83;;;10.65;;
56427;SDS011;42331;53.578;9.760;2023-02-03T01:22:41;20.15;;;9.60;;
56427;SDS011;42331;53.578;9.760;2023-02-03T01:25:12;21.10;;;9.73;;
56427;SDS011;42331;53.578;9.760;2023-02-03T01:27:42;20.85;;;10.32;;
56427;SDS011;42331;53.578;9.760;2023-02-03T01:30:13;23.90;;;8.93;;
56427;SDS011;42331;53.578;9.760;2023-02-03T01:32:44;20.90;;;9.18;;
56427;SDS011;42331;53.578;9.760;2023-02-03T01:35:14;23.13;;;8.52;;
56427;SDS011;42331;53.578;9.760;2023-02-03T01:37:45;20.48;;;9.18;;
56427;SDS011;42331;53.578;9.760;2023-02-03T01:40:16;19.30;;;8.07;;
56427;SDS011;42331;53.578;9.760;2023-02-03T01:42:47;13.93;;;7.97;;
56427;SDS011;42331;53.578;9.760;2023-02-03T01:45:18;12.82;;;5.78;;
56427;SDS011;42331;53.578;9.760;2023-02-03T01:47:49;17.40;;;7.63;;
56427;SDS011;42331;53.578;9.760;2023-02-03T01:50:31;23.90;;;7.88;;
56427;SDS011;42331;53.578;9.760;2023-02-03T01:53:06;23.58;;;8.90;;
56427;SDS011;42331;53.578;9.760;2023-02-03T01:55:41;19.13;;;8.13;;
56427;SDS011;42331;53.578;9.760;2023-02-03T01:58:16;13.18;;;7.50;;
56427;SDS011;42331;53.578;9.760;2023-02-03T02:00:50;15.98;;;7.18;;
56427;SDS011;42331;53.578;9.760;2023-02-03T02:03:23;17.10;;;6.82;;
56427;SDS011;42331;53.578;9.760;2023-02-03T02:06:03;17.63;;;7.07;;
56427;SDS011;42331;53.578;9.760;2023-02-03T02:08:36;16.15;;;6.82;;
56427;SDS011;42331;53.578;9.760;2023-02-03T02:11:08;18.55;;;7.28;;
56427;SDS011;42331;53.578;9.760;2023-02-03T02:13:39;13.57;;;7.03;;
56427;SDS011;42331;53.578;9.760;2023-02-03T02:16:17;22.88;;;7.90;;
56427;SDS011;42331;53.578;9.760;2023-02-03T02:41:21;18.02;;;6.20;;
56427;SDS011;42331;53.578;9.760;2023-02-03T02:46:40;15.80;;;6.28;;
56427;SDS011;42331;53.578;9.760;2023-02-03T02:49:18;15.00;;;5.70;;
56427;SDS011;42331;53.578;9.760;2023-02-03T02:51:59;21.83;;;6.05;;
56427;SDS011;42331;53.578;9.760;2023-02-03T02:54:33;13.55;;;5.30;;
56427;SDS011;42331;53.578;9.760;2023-02-03T02:57:10;14.30;;;5.18;;
56427;SDS011;42331;53.578;9.760;2023-02-03T02:59:44;18.98;;;4.57;;
56427;SDS011;42331;53.578;9.760;2023-02-03T03:02:15;15.32;;;4.78;;
56427;SDS011;42331;53.578;9.760;2023-02-03T03:04:46;14.90;;;5.00;;
56427;SDS011;42331;53.578;9.760;2023-02-03T03:07:21;12.38;;;4.30;;
56427;SDS011;42331;53.578;9.760;2023-02-03T03:09:58;17.08;;;4.20;;
56427;SDS011;42331;53.578;9.760;2023-02-03T03:12:35;12.55;;;4.05;;
56427;SDS011;42331;53.578;9.760;2023-02-03T03:15:14;11.05;;;3.55;;
56427;SDS011;42331;53.578;9.760;2023-02-03T03:18:03;11.23;;;3.50;;
56427;SDS011;42331;53.578;9.760;2023-02-03T03:20:39;9.48;;;3.83;;
56427;SDS011;42331;53.578;9.760;2023-02-03T03:23:19;11.88;;;2.80;;
56427;SDS011;42331;53.578;9.760;2023-02-03T03:26:10;10.18;;;2.88;;
56427;SDS011;42331;53.578;9.760;2023-02-03T03:28:50;11.57;;;2.58;;
56427;SDS011;42331;53.578;9.760;2023-02-03T03:31:23;12.02;;;2.75;;
56427;SDS011;42331;53.578;9.760;2023-02-03T03:33:54;14.03;;;2.43;;
56427;SDS011;42331;53.578;9.760;2023-02-03T03:36:39;13.52;;;2.75;;
56427;SDS011;42331;53.578;9.760;2023-02-03T03:50:52;12.43;;;2.88;;
56427;SDS011;42331;53.578;9.760;2023-02-03T03:53:29;10.00;;;2.90;;
56427;SDS011;42331;53.578;9.760;2023-02-03T03:56:03;12.23;;;3.03;;
56427;SDS011;42331;53.578;9.760;2023-02-03T03:58:36;8.80;;;3.22;;
56427;SDS011;42331;53.578;9.760;2023-02-03T04:01:10;11.18;;;3.47;;
56427;SDS011;42331;53.578;9.760;2023-02-03T04:06:15;14.57;;;4.40;;
56427;SDS011;42331;53.578;9.760;2023-02-03T04:08:46;10.88;;;4.57;;
56427;SDS011;42331;53.578;9.760;2023-02-03T04:11:17;8.35;;;4.50;;
56427;SDS011;42331;53.578;9.760;2023-02-03T04:14:06;12.05;;;4.10;;
56427;SDS011;42331;53.578;9.760;2023-02-03T04:16:36;9.15;;;4.20;;
56427;SDS011;42331;53.578;9.760;2023-02-03T04:19:07;12.95;;;4.28;;
56427;SDS011;42331;53.578;9.760;2023-02-03T04:21:38;18.05;;;4.63;;
56427;SDS011;42331;53.578;9.760;2023-02-03T04:24:09;9.27;;;4.18;;
56427;SDS011;42331;53.578;9.760;2023-02-03T04:29:11;12.07;;;4.65;;
56427;SDS011;42331;53.578;9.760;2023-02-03T04:31:43;9.20;;;4.53;;
56427;SDS011;42331;53.578;9.760;2023-02-03T04:34:13;9.93;;;4.03;;
56427;SDS011;42331;53.578;9.760;2023-02-03T04:36:44;15.35;;;4.50;;
56427;SDS011;42331;53.578;9.760;2023-02-03T04:39:15;16.70;;;5.70;;
56427;SDS011;42331;53.578;9.760;2023-02-03T04:41:45;15.07;;;5.50;;
56427;SDS011;42331;53.578;9.760;2023-02-03T04:44:16;15.05;;;6.05;;
56427;SDS011;42331;53.578;9.760;2023-02-03T04:46:47;15.65;;;5.53;;
56427;SDS011;42331;53.578;9.760;2023-02-03T04:49:17;14.13;;;5.30;;
56427;SDS011;42331;53.578;9.760;2023-02-03T04:51:48;14.98;;;5.82;;
56427;SDS011;42331;53.578;9.760;2023-02-03T04:54:19;19.98;;;6.03;;
56427;SDS011;42331;53.578;9.760;2023-02-03T04:56:50;12.50;;;4.50;;
56427;SDS011;42331;53.578;9.760;2023-02-03T04:59:21;18.33;;;6.55;;
56427;SDS011;42331;53.578;9.760;2023-02-03T05:01:51;8.82;;;4.18;;
56427;SDS011;42331;53.578;9.760;2023-02-03T05:04:22;19.58;;;5.93;;
56427;SDS011;42331;53.578;9.760;2023-02-03T05:06:53;14.55;;;5.90;;
56427;SDS011;42331;53.578;9.760;2023-02-03T05:09:25;18.77;;;6.43;;
56427;SDS011;42331;53.578;9.760;2023-02-03T05:11:56;22.92;;;6.13;;
56427;SDS011;42331;53.578;9.760;2023-02-03T05:14:26;16.90;;;5.80;;
56427;SDS011;42331;53.578;9.760;2023-02-03T05:16:57;14.95;;;5.88;;
56427;SDS011;42331;53.578;9.760;2023-02-03T05:19:28;17.02;;;6.32;;
56427;SDS011;42331;53.578;9.760;2023-02-03T05:21:59;10.98;;;5.57;;
56427;SDS011;42331;53.578;9.760;2023-02-03T05:24:30;18.35;;;5.30;;
56427;SDS011;42331;53.578;9.760;2023-02-03T05:27:00;14.63;;;5.00;;
56427;SDS011;42331;53.578;9.760;2023-02-03T05:29:31;13.52;;;5.35;;
56427;SDS011;42331;53.578;9.760;2023-02-03T05:32:02;17.45;;;5.40;;
56427;SDS011;42331;53.578;9.760;2023-02-03T05:34:33;14.65;;;5.55;;
56427;SDS011;42331;53.578;9.760;2023-02-03T05:37:03;14.55;;;5.63;;
56427;SDS011;42331;53.578;9.760;2023-02-03T05:39:34;12.18;;;5.07;;
56427;SDS011;42331;53.578;9.760;2023-02-03T05:42:05;15.30;;;5.35;;
56427;SDS011;42331;53.578;9.760;2023-02-03T05:44:35;12.40;;;5.18;;
56427;SDS011;42331;53.578;9.760;2023-02-03T05:47:06;8.52;;;3.85;;
56427;SDS011;42331;53.578;9.760;2023-02-03T05:49:37;16.10;;;5.55;;
56427;SDS011;42331;53.578;9.760;2023-02-03T05:52:07;12.75;;;4.53;;
56427;SDS011;42331;53.578;9.760;2023-02-03T05:54:38;14.48;;;4.10;;
56427;SDS011;42331;53.578;9.760;2023-02-03T05:57:08;16.02;;;4.07;;
56427;SDS011;42331;53.578;9.760;2023-02-03T05:59:39;13.50;;;4.00;;
56427;SDS011;42331;53.578;9.760;2023-02-03T06:02:10;14.27;;;4.65;;
56427;SDS011;42331;53.578;9.760;2023-02-03T06:04:40;11.98;;;3.50;;
56427;SDS011;42331;53.578;9.760;2023-02-03T06:07:11;14.63;;;3.85;;
56427;SDS011;42331;53.578;9.760;2023-02-03T06:09:42;15.13;;;4.80;;
56427;SDS011;42331;53.578;9.760;2023-02-03T06:12:13;16.75;;;4.00;;
56427;SDS011;42331;53.578;9.760;2023-02-03T06:14:44;12.07;;;3.33;;
56427;SDS011;42331;53.578;9.760;2023-02-03T06:17:15;11.20;;;2.72;;
56427;SDS011;42331;53.578;9.760;2023-02-03T06:19:45;14.20;;;4.63;;
56427;SDS011;42331;53.578;9.760;2023-02-03T06:22:16;17.65;;;4.05;;
56427;SDS011;42331;53.578;9.760;2023-02-03T06:24:46;15.32;;;3.75;;
56427;SDS011;42331;53.578;9.760;2023-02-03T06:27:17;15.93;;;4.40;;
56427;SDS011;42331;53.578;9.760;2023-02-03T06:29:48;21.10;;;4.10;;
56427;SDS011;42331;53.578;9.760;2023-02-03T06:32:19;14.40;;;4.43;;
56427;SDS011;42331;53.578;9.760;2023-02-03T06:34:50;18.45;;;5.18;;
56427;SDS011;42331;53.578;9.760;2023-02-03T06:37:20;15.45;;;3.97;;
56427;SDS011;42331;53.578;9.760;2023-02-03T06:39:51;15.35;;;4.35;;
56427;SDS011;42331;53.578;9.760;2023-02-03T06:42:22;19.80;;;5.68;;
56427;SDS011;42331;53.578;9.760;2023-02-03T06:44:52;20.25;;;5.38;;
56427;SDS011;42331;53.578;9.760;2023-02-03T06:47:24;20.75;;;4.70;;
56427;SDS011;42331;53.578;9.760;2023-02-03T06:49:54;14.73;;;4.22;;
56427;SDS011;42331;53.578;9.760;2023-02-03T06:52:25;23.92;;;4.72;;
56427;SDS011;42331;53.578;9.760;2023-02-03T06:54:56;15.90;;;3.92;;
56427;SDS011;42331;53.578;9.760;2023-02-03T06:57:26;31.23;;;4.75;;
56427;SDS011;42331;53.578;9.760;2023-02-03T06:59:57;24.92;;;4.57;;
56427;SDS011;42331;53.578;9.760;2023-02-03T07:02:28;22.33;;;3.75;;
56427;SDS011;42331;53.578;9.760;2023-02-03T07:04:58;18.50;;;4.57;;
56427;SDS011;42331;53.578;9.760;2023-02-03T07:07:29;21.38;;;4.18;;
56427;SDS011;42331;53.578;9.760;2023-02-03T07:10:01;15.82;;;3.70;;
56427;SDS011;42331;53.578;9.760;2023-02-03T07:12:32;16.48;;;4.03;;
56427;SDS011;42331;53.578;9.760;2023-02-03T07:15:03;24.52;;;4.45;;
56427;SDS011;42331;53.578;9.760;2023-02-03T07:17:34;29.45;;;4.72;;
56427;SDS011;42331;53.578;9.760;2023-02-03T07:20:05;27.05;;;4.35;;
56427;SDS011;42331;53.578;9.760;2023-02-03T07:22:36;25.67;;;4.68;;
56427;SDS011;42331;53.578;9.760;2023-02-03T07:25:07;21.88;;;3.95;;
56427;SDS011;42331;53.578;9.760;2023-02-03T07:27:38;20.70;;;3.88;;
56427;SDS011;42331;53.578;9.760;2023-02-03T07:30:09;20.77;;;3.92;;
56427;SDS011;42331;53.578;9.760;2023-02-03T07:32:40;24.48;;;3.80;;
56427;SDS011;42331;53.578;9.760;2023-02-03T07:35:11;17.50;;;4.05;;
56427;SDS011;42331;53.578;9.760;2023-02-03T07:37:41;26.20;;;3.80;;
56427;SDS011;42331;53.578;9.760;2023-02-03T07:40:13;23.30;;;4.43;;
56427;SDS011;42331;53.578;9.760;2023-02-03T07:42:48;17.67;;;3.53;;
56427;SDS011;42331;53.578;9.760;2023-02-03T07:45:19;23.38;;;3.47;;
56427;SDS011;42331;53.578;9.760;2023-02-03T07:50:21;24.35;;;3.83;;
56427;SDS011;42331;53.578;9.760;2023-02-03T07:52:52;30.13;;;3.53;;
56427;SDS011;42331;53.578;9.760;2023-02-03T07:55:24;27.83;;;3.47;;
56427;SDS011;42331;53.578;9.760;2023-02-03T07:57:55;28.60;;;3.35;;
56427;SDS011;42331;53.578;9.760;2023-02-03T08:00:26;21.42;;;3.38;;
56427;SDS011;42331;53.578;9.760;2023-02-03T08:02:57;25.10;;;3.55;;
56427;SDS011;42331;53.578;9.760;2023-02-03T08:05:28;30.23;;;3.83;;
56427;SDS011;42331;53.578;9.760;2023-02-03T08:07:59;31.33;;;4.35;;
56427;SDS011;42331;53.578;9.760;2023-02-03T08:10:29;39.05;;;4.90;;
56427;SDS011;42331;53.578;9.760;2023-02-03T08:13:00;26.77;;;3.72;;
56427;SDS011;42331;53.578;9.760;2023-02-03T08:15:31;34.95;;;3.92;;
56427;SDS011;42331;53.578;9.760;2023-02-03T08:18:02;23.50;;;3.50;;
56427;SDS011;42331;53.578;9.760;2023-02-03T08:20:32;29.92;;;4.10;;
56427;SDS011;42331;53.578;9.760;2023-02-03T08:23:03;32.58;;;4.28;;
56427;SDS011;42331;53.578;9.760;2023-02-03T08:25:34;23.70;;;2.78;;
56427;SDS011;42331;53.578;9.760;2023-02-03T08:28:04;36.78;;;5.07;;
56427;SDS011;42331;53.578;9.760;2023-02-03T08:30:35;27.75;;;3.65;;
56427;SDS011;42331;53.578;9.760;2023-02-03T08:33:06;29.38;;;3.78;;
56427;SDS011;42331;53.578;9.760;2023-02-03T08:35:36;21.90;;;3.25;;
56427;SDS011;42331;53.578;9.760;2023-02-03T08:38:09;24.35;;;3.67;;
56427;SDS011;42331;53.578;9.760;2023-02-03T08:40:39;33.20;;;4.10;;
56427;SDS011;42331;53.578;9.760;2023-02-03T08:43:10;25.00;;;3.28;;
56427;SDS011;42331;53.578;9.760;2023-02-03T08:45:41;29.70;;;3.00;;
56427;SDS011;42331;53.578;9.760;2023-02-03T08:48:12;24.85;;;3.63;;
56427;SDS011;42331;53.578;9.760;2023-02-03T08:50:43;27.55;;;3.22;;
56427;SDS011;42331;53.578;9.760;2023-02-03T08:53:20;24.55;;;3.53;;
56427;SDS011;42331;53.578;9.760;2023-02-03T08:55:51;27.13;;;3.47;;
56427;SDS011;42331;53.578;9.760;2023-02-03T08:58:23;29.10;;;3.78;;
56427;SDS011;42331;53.578;9.760;2023-02-03T09:00:54;31.73;;;3.72;;
56427;SDS011;42331;53.578;9.760;2023-02-03T09:03:24;24.13;;;3.70;;
56427;SDS011;42331;53.578;9.760;2023-02-03T09:05:55;22.55;;;3.85;;
56427;SDS011;42331;53.578;9.760;2023-02-03T09:08:26;31.50;;;5.00;;
56427;SDS011;42331;53.578;9.760;2023-02-03T09:10:57;35.58;;;4.53;;
56427;SDS011;42331;53.578;9.760;2023-02-03T09:13:28;31.35;;;4.30;;
56427;SDS011;42331;53.578;9.760;2023-02-03T09:16:00;33.97;;;4.57;;
56427;SDS011;42331;53.578;9.760;2023-02-03T09:18:31;36.55;;;4.82;;
56427;SDS011;42331;53.578;9.760;2023-02-03T09:21:02;34.58;;;5.20;;
56427;SDS011;42331;53.578;9.760;2023-02-03T09:23:34;29.35;;;4.70;;
56427;SDS011;42331;53.578;9.760;2023-02-03T09:26:09;39.38;;;5.18;;
56427;SDS011;42331;53.578;9.760;2023-02-03T09:28:41;40.65;;;6.15;;
56427;SDS011;42331;53.578;9.760;2023-02-03T09:31:13;48.28;;;5.22;;
56427;SDS011;42331;53.578;9.760;2023-02-03T09:33:46;39.38;;;5.78;;
56427;SDS011;42331;53.578;9.760;2023-02-03T09:36:17;52.53;;;7.90;;
56427;SDS011;42331;53.578;9.760;2023-02-03T09:38:48;40.03;;;5.03;;
56427;SDS011;42331;53.578;9.760;2023-02-03T09:46:58;46.58;;;6.97;;
56427;SDS011;42331;53.578;9.760;2023-02-03T09:49:39;51.35;;;6.70;;
56427;SDS011;42331;53.578;9.760;2023-02-03T09:52:29;43.13;;;6.45;;
56427;SDS011;42331;53.578;9.760;2023-02-03T09:58:11;53.72;;;6.88;;
56427;SDS011;42331;53.578;9.760;2023-02-03T10:03:35;61.65;;;7.15;;
56427;SDS011;42331;53.578;9.760;2023-02-03T10:06:35;46.92;;;6.45;;
56427;SDS011;42331;53.578;9.760;2023-02-03T10:19:49;45.63;;;6.53;;
56427;SDS011;42331;53.578;9.760;2023-02-03T10:22:31;52.28;;;8.48;;
56427;SDS011;42331;53.578;9.760;2023-02-03T10:25:14;47.78;;;7.18;;
56427;SDS011;42331;53.578;9.760;2023-02-03T10:27:55;48.90;;;6.38;;
56427;SDS011;42331;53.578;9.760;2023-02-03T10:30:38;39.10;;;6.55;;
56427;SDS011;42331;53.578;9.760;2023-02-03T10:33:15;46.83;;;5.95;;
56427;SDS011;42331;53.578;9.760;2023-02-03T10:35:49;51.05;;;7.00;;
56427;SDS011;42331;53.578;9.760;2023-02-03T10:41:23;40.90;;;6.88;;
56427;SDS011;42331;53.578;9.760;2023-02-03T10:43:54;47.87;;;6.80;;
56427;SDS011;42331;53.578;9.760;2023-02-03T10:48:57;46.15;;;6.25;;
56427;SDS011;42331;53.578;9.760;2023-02-03T10:51:29;45.65;;;7.15;;
56427;SDS011;42331;53.578;9.760;2023-02-03T10:54:04;52.22;;;8.07;;
56427;SDS011;42331;53.578;9.760;2023-02-03T10:57:02;42.65;;;6.45;;
56427;SDS011;42331;53.578;9.760;2023-02-03T10:59:35;54.67;;;6.75;;
56427;SDS011;42331;53.578;9.760;2023-02-03T11:02:20;51.35;;;7.20;;
56427;SDS011;42331;53.578;9.760;2023-02-03T11:07:51;45.92;;;5.93;;
56427;SDS011;42331;53.578;9.760;2023-02-03T11:21:17;41.03;;;6.57;;
56427;SDS011;42331;53.578;9.760;2023-02-03T11:26:27;35.20;;;5.47;;
56427;SDS011;42331;53.578;9.760;2023-02-03T11:29:03;40.25;;;6.18;;
56427;SDS011;42331;53.578;9.760;2023-02-03T11:31:37;40.42;;;6.13;;
56427;SDS011;42331;53.578;9.760;2023-02-03T11:34:15;44.20;;;7.38;;
56427;SDS011;42331;53.578;9.760;2023-02-03T11:36:48;45.38;;;5.78;;
56427;SDS011;42331;53.578;9.760;2023-02-03T11:39:24;42.57;;;6.57;;
56427;SDS011;42331;53.578;9.760;2023-02-03T11:42:09;39.13;;;6.65;;
56427;SDS011;42331;53.578;9.760;2023-02-03T11:44:52;40.25;;;6.10;;
56427;SDS011;42331;53.578;9.760;2023-02-03T11:47:46;48.90;;;7.40;;
56427;SDS011;42331;53.578;9.760;2023-02-03T12:07:07;39.00;;;5.90;;
56427;SDS011;42331;53.578;9.760;2023-02-03T12:10:20;31.63;;;5.10;;
56427;SDS011;42331;53.578;9.760;2023-02-03T12:15:55;38.50;;;5.90;;
56427;SDS011;42331;53.578;9.760;2023-02-03T12:18:50;36.90;;;6.40;;
56427;SDS011;42331;53.578;9.760;2023-02-03T12:21:41;38.97;;;5.75;;
56427;SDS011;42331;53.578;9.760;2023-02-03T12:29:42;37.38;;;5.40;;
56427;SDS011;42331;53.578;9.760;2023-02-03T12:37:55;42.72;;;5.43;;
56427;SDS011;42331;53.578;9.760;2023-02-03T12:40:38;41.67;;;5.68;;
56427;SDS011;42331;53.578;9.760;2023-02-03T12:46:02;34.83;;;5.43;;
56427;SDS011;42331;53.578;9.760;2023-02-03T12:51:37;37.67;;;5.78;;
56427;SDS011;42331;53.578;9.760;2023-02-03T12:54:24;32.70;;;4.47;;
56427;SDS011;42331;53.578;9.760;2023-02-03T13:08:33;36.63;;;4.93;;
56427;SDS011;42331;53.578;9.760;2023-02-03T13:11:25;36.78;;;4.97;;
56427;SDS011;42331;53.578;9.760;2023-02-03T13:14:18;35.58;;;5.15;;
56427;SDS011;42331;53.578;9.760;2023-02-03T13:20:01;36.45;;;5.18;;
56427;SDS011;42331;53.578;9.760;2023-02-03T13:22:44;39.85;;;4.72;;
56427;SDS011;42331;53.578;9.760;2023-02-03T13:25:17;37.25;;;5.78;;
56427;SDS011;42331;53.578;9.760;2023-02-03T13:42:28;40.55;;;5.82;;
56427;SDS011;42331;53.578;9.760;2023-02-03T13:48:16;41.97;;;5.30;;
56427;SDS011;42331;53.578;9.760;2023-02-03T13:53:47;45.88;;;5.63;;
56427;SDS011;42331;53.578;9.760;2023-02-03T13:56:20;33.35;;;4.88;;
56427;SDS011;42331;53.578;9.760;2023-02-03T14:01:42;34.35;;;4.85;;
56427;SDS011;42331;53.578;9.760;2023-02-03T14:06:57;42.33;;;5.82;;
56427;SDS011;42331;53.578;9.760;2023-02-03T14:09:34;33.05;;;6.03;;
56427;SDS011;42331;53.578;9.760;2023-02-03T14:12:18;32.00;;;4.72;;
56427;SDS011;42331;53.578;9.760;2023-02-03T14:17:59;39.63;;;4.72;;
56427;SDS011;42331;53.578;9.760;2023-02-03T14:20:38;35.20;;;5.53;;
56427;SDS011;42331;53.578;9.760;2023-02-03T14:23:15;32.63;;;4.43;;
56427;SDS011;42331;53.578;9.760;2023-02-03T14:26:03;33.95;;;5.32;;
56427;SDS011;42331;53.578;9.760;2023-02-03T14:28:41;37.22;;;5.85;;
56427;SDS011;42331;53.578;9.760;2023-02-03T14:31:18;39.53;;;5.47;;
56427;SDS011;42331;53.578;9.760;2023-02-03T14:36:45;37.30;;;5.65;;
56427;SDS011;42331;53.578;9.760;2023-02-03T14:39:26;36.63;;;5.25;;
56427;SDS011;42331;53.578;9.760;2023-02-03T14:49:06;36.60;;;5.07;;
56427;SDS011;42331;53.578;9.760;2023-02-03T15:02:30;31.95;;;5.82;;
56427;SDS011;42331;53.578;9.760;2023-02-03T15:07:46;53.90;;;7.15;;
56427;SDS011;42331;53.578;9.760;2023-02-03T15:10:40;47.03;;;5.70;;
56427;SDS011;42331;53.578;9.760;2023-02-03T15:13:28;41.92;;;5.40;;
56427;SDS011;42331;53.578;9.760;2023-02-03T15:16:01;48.15;;;6.15;;
56427;SDS011;42331;53.578;9.760;2023-02-03T15:18:34;41.13;;;6.40;;
56427;SDS011;42331;53.578;9.760;2023-02-03T15:21:16;46.92;;;6.40;;
56427;SDS011;42331;53.578;9.760;2023-02-03T15:23:48;43.67;;;5.55;;
56427;SDS011;42331;53.578;9.760;2023-02-03T15:28:56;40.85;;;5.60;;
56427;SDS011;42331;53.578;9.760;2023-02-03T15:31:44;49.88;;;6.57;;
56427;SDS011;42331;53.578;9.760;2023-02-03T15:36:57;44.67;;;6.90;;
56427;SDS011;42331;53.578;9.760;2023-02-03T15:42:23;44.25;;;6.03;;
56427;SDS011;42331;53.578;9.760;2023-02-03T15:47:49;42.70;;;6.20;;
56427;SDS011;42331;53.578;9.760;2023-02-03T15:53:28;45.58;;;5.85;;
56427;SDS011;42331;53.578;9.760;2023-02-03T15:56:02;39.10;;;5.80;;
56427;SDS011;42331;53.578;9.760;2023-02-03T15:58:38;38.72;;;5.38;;
56427;SDS011;42331;53.578;9.760;2023-02-03T16:01:14;46.35;;;5.47;;
56427;SDS011;42331;53.578;9.760;2023-02-03T16:03:51;46.88;;;5.55;;
56427;SDS011;42331;53.578;9.760;2023-02-03T16:06:28;36.95;;;5.75;;
56427;SDS011;42331;53.578;9.760;2023-02-03T16:09:05;44.95;;;6.32;;
56427;SDS011;42331;53.578;9.760;2023-02-03T16:12:02;45.17;;;6.55;;
56427;SDS011;42331;53.578;9.760;2023-02-03T16:14:36;48.47;;;6.78;;
56427;SDS011;42331;53.578;9.760;2023-02-03T16:17:23;37.35;;;5.55;;
56427;SDS011;42331;53.578;9.760;2023-02-03T16:25:23;46.78;;;6.35;;
56427;SDS011;42331;53.578;9.760;2023-02-03T16:30:58;39.70;;;5.53;;
56427;SDS011;42331;53.578;9.760;2023-02-03T16:33:49;44.30;;;5.95;;
56427;SDS011;42331;53.578;9.760;2023-02-03T16:36:39;40.28;;;5.55;;
56427;SDS011;42331;53.578;9.760;2023-02-03T16:39:30;51.00;;;7.80;;
56427;SDS011;42331;53.578;9.760;2023-02-03T16:42:19;37.00;;;5.55;;
56427;SDS011;42331;53.578;9.760;2023-02-03T16:45:13;33.38;;;5.35;;
56427;SDS011;42331;53.578;9.760;2023-02-03T16:48:05;46.10;;;6.20;;
56427;SDS011;42331;53.578;9.760;2023-02-03T16:50:59;49.20;;;7.00;;
56427;SDS011;42331;53.578;9.760;2023-02-03T16:53:34;49.97;;;6.47;;
56427;SDS011;42331;53.578;9.760;2023-02-03T16:56:05;47.55;;;5.78;;
56427;SDS011;42331;53.578;9.760;2023-02-03T16:58:36;40.05;;;5.82;;
56427;SDS011;42331;53.578;9.760;2023-02-03T17:01:07;40.10;;;6.30;;
56427;SDS011;42331;53.578;9.760;2023-02-03T17:03:40;38.75;;;6.50;;
56427;SDS011;42331;53.578;9.760;2023-02-03T17:06:13;47.15;;;7.40;;
56427;SDS011;42331;53.578;9.760;2023-02-03T17:08:44;46.50;;;6.22;;
56427;SDS011;42331;53.578;9.760;2023-02-03T17:11:15;36.95;;;4.93;;
56427;SDS011;42331;53.578;9.760;2023-02-03T17:13:48;52.30;;;7.38;;
56427;SDS011;42331;53.578;9.760;2023-02-03T17:16:20;50.20;;;6.20;;
56427;SDS011;42331;53.578;9.760;2023-02-03T17:18:55;45.15;;;6.03;;
56427;SDS011;42331;53.578;9.760;2023-02-03T17:21:26;44.25;;;6.05;;
56427;SDS011;42331;53.578;9.760;2023-02-03T17:24:01;40.80;;;6.70;;
56427;SDS011;42331;53.578;9.760;2023-02-03T17:26:32;50.88;;;7.18;;
56427;SDS011;42331;53.578;9.760;2023-02-03T17:29:03;52.30;;;6.80;;
56427;SDS011;42331;53.578;9.760;2023-02-03T17:31:34;42.78;;;5.93;;
56427;SDS011;42331;53.578;9.760;2023-02-03T17:34:04;48.13;;;6.38;;
56427;SDS011;42331;53.578;9.760;2023-02-03T17:39:18;47.25;;;6.32;;
56427;SDS011;42331;53.578;9.760;2023-02-03T17:41:50;54.42;;;7.35;;
56427;SDS011;42331;53.578;9.760;2023-02-03T17:44:24;57.40;;;6.60;;
56427;SDS011;42331;53.578;9.760;2023-02-03T17:46:55;51.33;;;6.60;;
56427;SDS011;42331;53.578;9.760;2023-02-03T17:49:26;52.08;;;6.78;;
56427;SDS011;42331;53.578;9.760;2023-02-03T17:51:56;67.85;;;7.57;;
56427;SDS011;42331;53.578;9.760;2023-02-03T17:54:27;63.63;;;8.32;;
56427;SDS011;42331;53.578;9.760;2023-02-03T17:56:58;56.00;;;7.80;;
56427;SDS011;42331;53.578;9.760;2023-02-03T17:59:29;57.45;;;7.43;;
56427;SDS011;42331;53.578;9.760;2023-02-03T18:01:59;64.55;;;7.25;;
56427;SDS011;42331;53.578;9.760;2023-02-03T18:04:30;66.53;;;8.98;;
56427;SDS011;42331;53.578;9.760;2023-02-03T18:07:01;63.47;;;7.22;;
56427;SDS011;42331;53.578;9.760;2023-02-03T18:09:32;68.53;;;8.93;;
56427;SDS011;42331;53.578;9.760;2023-02-03T18:12:03;64.07;;;8.13;;
56427;SDS011;42331;53.578;9.760;2023-02-03T18:14:33;53.08;;;8.00;;
56427;SDS011;42331;53.578;9.760;2023-02-03T18:17:04;58.75;;;6.55;;
56427;SDS011;42331;53.578;9.760;2023-02-03T18:19:35;60.85;;;6.70;;
56427;SDS011;42331;53.578;9.760;2023-02-03T18:22:06;59.45;;;6.18;;
56427;SDS011;42331;53.578;9.760;2023-02-03T18:24:36;54.38;;;6.57;;
56427;SDS011;42331;53.578;9.760;2023-02-03T18:29:46;57.80;;;9.02;;
56427;SDS011;42331;53.578;9.760;2023-02-03T18:34:49;53.33;;;7.90;;
56427;SDS011;42331;53.578;9.760;2023-02-03T18:37:19;66.43;;;8.50;;
56427;SDS011;42331;53.578;9.760;2023-02-03T18:39:50;62.03;;;8.63;;
56427;SDS011;42331;53.578;9.760;2023-02-03T18:42:20;66.20;;;8.52;;
56427;SDS011;42331;53.578;9.760;2023-02-03T18:44:51;79.28;;;9.82;;
56427;SDS011;42331;53.578;9.760;2023-02-03T18:47:22;77.20;;;8.40;;
56427;SDS011;42331;53.578;9.760;2023-02-03T18:49:52;72.57;;;7.82;;
56427;SDS011;42331;53.578;9.760;2023-02-03T18:52:23;70.30;;;9.40;;
56427;SDS011;42331;53.578;9.760;2023-02-03T18:54:54;58.55;;;8.57;;
56427;SDS011;42331;53.578;9.760;2023-02-03T18:57:25;71.13;;;9.70;;